createdAt,value
2018-07-11T00:01:15.141Z,45.50
2018-07-11T00:03:49.675Z,45.50
2018-07-11T00:06:19.647Z,45.60
2018-07-11T00:08:48.404Z,45.70
2018-07-11T00:11:17.068Z,46.00
2018-07-11T00:13:46.699Z,46.00
2018-07-11T00:16:15.963Z,46.00
2018-07-11T00:18:44.687Z,46.20
2018-07-11T00:21:13.532Z,46.00
2018-07-11T00:23:42.284Z,46.10
2018-07-11T00:26:11.569Z,46.30
2018-07-11T00:28:40.452Z,47.20
2018-07-11T00:31:09.408Z,46.60
2018-07-11T00:36:06.499Z,46.80
2018-07-11T00:38:35.285Z,47.40
2018-07-11T00:41:04.163Z,47.40
2018-07-11T00:43:34.543Z,47.60
2018-07-11T00:46:04.228Z,47.10
2018-07-11T00:48:33.320Z,48.20
2018-07-11T00:51:02.634Z,47.60
2018-07-11T00:53:32.864Z,47.20
2018-07-11T00:56:02.173Z,46.70
2018-07-11T00:58:32.932Z,46.40
2018-07-11T01:01:11.222Z,46.30
2018-07-11T01:03:49.072Z,46.30
2018-07-11T01:06:18.599Z,46.10
2018-07-11T01:08:49.484Z,46.00
2018-07-11T01:11:18.428Z,46.20
2018-07-11T01:13:48.484Z,46.30
2018-07-11T01:16:18.569Z,46.60
2018-07-11T01:18:53.384Z,46.60
2018-07-11T01:21:22.133Z,46.80
2018-07-11T01:26:22.792Z,47.00
2018-07-11T01:28:51.564Z,47.30
2018-07-11T01:33:48.688Z,47.90
2018-07-11T01:36:17.514Z,49.20
2018-07-11T01:38:46.365Z,49.60
2018-07-11T01:41:15.341Z,49.40
2018-07-11T01:43:44.537Z,49.40
2018-07-11T01:46:13.472Z,49.20
2018-07-11T01:48:42.438Z,49.10
2018-07-11T01:51:11.141Z,49.00
2018-07-11T01:53:40.016Z,49.30
2018-07-11T01:56:08.943Z,50.00
2018-07-11T01:58:38.138Z,50.30
2018-07-11T02:01:07.049Z,50.50
2018-07-11T02:03:35.952Z,50.60
2018-07-11T02:06:04.654Z,50.70
2018-07-11T02:08:33.526Z,50.80
2018-07-11T02:11:02.421Z,50.60
2018-07-11T02:13:31.293Z,50.90
2018-07-11T02:16:00.184Z,51.10
2018-07-11T02:18:29.901Z,51.20
2018-07-11T02:20:59.532Z,51.90
2018-07-11T02:23:35.709Z,51.70
2018-07-11T02:26:04.570Z,50.80
2018-07-11T02:28:33.480Z,50.70
2018-07-11T02:31:02.821Z,50.60
2018-07-11T02:33:31.704Z,50.30
2018-07-11T02:36:00.513Z,49.80
2018-07-11T02:40:57.513Z,50.40
2018-07-11T02:43:26.224Z,50.50
2018-07-11T02:45:55.060Z,50.30
2018-07-11T02:48:23.848Z,50.40
2018-07-11T02:50:52.657Z,50.10
2018-07-11T02:53:23.024Z,50.10
2018-07-11T02:55:52.460Z,50.10
2018-07-11T02:58:21.245Z,49.90
2018-07-11T03:00:50.492Z,49.80
2018-07-11T03:03:19.384Z,50.00
2018-07-11T03:05:48.258Z,50.00
2018-07-11T03:08:17.740Z,50.00
2018-07-11T03:10:46.765Z,49.90
2018-07-11T03:13:19.221Z,50.10
2018-07-11T03:15:47.927Z,50.00
2018-07-11T03:18:16.798Z,50.00
2018-07-11T03:20:45.476Z,50.50
2018-07-11T03:23:14.178Z,50.70
2018-07-11T03:25:43.069Z,50.70
2018-07-11T03:28:11.727Z,50.60
2018-07-11T03:30:40.494Z,50.20
2018-07-11T03:33:09.144Z,50.40
2018-07-11T03:35:37.915Z,50.20
2018-07-11T03:38:06.674Z,50.50
2018-07-11T03:40:35.476Z,50.80
2018-07-11T03:43:04.240Z,51.60
2018-07-11T03:45:32.900Z,52.50
2018-07-11T03:48:01.587Z,52.70
2018-07-11T03:50:30.297Z,52.50
2018-07-11T03:52:59.022Z,53.10
2018-07-11T03:55:27.666Z,53.10
2018-07-11T03:57:56.310Z,53.30
2018-07-11T04:00:26.166Z,53.90
2018-07-11T04:02:55.824Z,53.80
2018-07-11T04:05:24.524Z,54.10
2018-07-11T04:07:53.172Z,53.90
2018-07-11T04:10:21.820Z,54.30
2018-07-11T04:12:56.433Z,54.80
2018-07-11T04:15:25.108Z,54.70
2018-07-11T04:17:53.804Z,54.50
2018-07-11T04:20:22.481Z,54.80
2018-07-11T04:22:51.280Z,55.20
2018-07-11T04:25:19.940Z,55.10
2018-07-11T04:27:48.965Z,55.10
2018-07-11T04:30:17.709Z,55.20
2018-07-11T04:32:46.616Z,55.60
2018-07-11T04:35:15.313Z,56.40
2018-07-11T04:37:44.073Z,56.60
2018-07-11T04:40:12.896Z,57.20
2018-07-11T04:42:41.775Z,57.70
2018-07-11T04:45:10.666Z,58.10
2018-07-11T04:47:39.462Z,58.30
2018-07-11T04:50:08.236Z,58.60
2018-07-11T04:52:37.145Z,58.90
2018-07-11T04:55:06.073Z,59.20
2018-07-11T04:57:34.689Z,59.70
2018-07-11T05:00:03.337Z,60.20
2018-07-11T05:02:31.992Z,60.80
2018-07-11T05:05:00.625Z,60.50
2018-07-11T05:07:29.273Z,60.10
2018-07-11T05:09:57.904Z,59.90
2018-07-11T05:12:26.548Z,60.20
2018-07-11T05:14:55.171Z,60.00
2018-07-11T05:19:52.033Z,59.60
2018-07-11T05:22:20.642Z,59.40
2018-07-11T05:24:49.252Z,58.50
2018-07-11T05:27:17.855Z,57.90
2018-07-11T05:29:46.468Z,58.00
2018-07-11T05:32:15.117Z,57.70
2018-07-11T05:34:43.740Z,57.70
2018-07-11T05:37:12.349Z,57.70
2018-07-11T05:39:40.964Z,57.70
2018-07-11T05:42:09.597Z,57.00
2018-07-11T05:44:38.263Z,57.40
2018-07-11T05:47:07.381Z,57.00
2018-07-11T05:49:36.094Z,57.10
2018-07-11T05:52:04.869Z,56.20
2018-07-11T05:54:34.453Z,55.90
2018-07-11T05:57:04.816Z,55.30
2018-07-11T05:59:33.525Z,55.40
2018-07-11T06:02:02.230Z,54.40
2018-07-11T06:04:30.886Z,54.10
2018-07-11T06:06:59.505Z,52.30
2018-07-11T06:09:28.168Z,50.10
2018-07-11T06:11:56.821Z,48.80
2018-07-11T06:14:25.470Z,47.30
2018-07-11T06:16:54.093Z,46.00
2018-07-11T06:19:22.720Z,44.80
2018-07-11T06:21:51.532Z,43.70
2018-07-11T06:24:20.833Z,42.70
2018-07-11T06:26:49.512Z,41.60
2018-07-11T06:29:18.168Z,40.60
2018-07-11T06:31:46.844Z,40.10
2018-07-11T06:34:15.545Z,39.40
2018-07-11T06:36:44.193Z,38.50
2018-07-11T06:39:12.865Z,37.70
2018-07-11T06:41:41.541Z,36.60
2018-07-11T06:44:10.212Z,35.70
2018-07-11T06:46:39.315Z,35.50
2018-07-11T06:49:08.309Z,34.40
2018-07-11T06:51:36.973Z,34.60
2018-07-11T06:54:05.748Z,33.60
2018-07-11T06:56:34.394Z,33.60
2018-07-11T06:59:03.197Z,33.10
2018-07-11T07:01:31.914Z,33.10
2018-07-11T07:04:00.574Z,32.50
2018-07-11T07:06:29.238Z,32.30
2018-07-11T07:08:57.914Z,31.90
2018-07-11T07:11:26.577Z,31.20
2018-07-11T07:13:55.264Z,31.00
2018-07-11T07:16:23.956Z,31.00
2018-07-11T07:18:52.666Z,31.10
2018-07-11T07:21:21.380Z,31.20
2018-07-11T07:23:50.045Z,31.80
2018-07-11T07:26:18.780Z,31.40
2018-07-11T07:28:47.561Z,31.30
2018-07-11T07:31:16.218Z,30.80
2018-07-11T07:33:44.889Z,30.80
2018-07-11T07:36:13.575Z,31.20
2018-07-11T07:38:43.976Z,31.70
2018-07-11T07:41:12.656Z,31.90
2018-07-11T07:43:43.344Z,31.20
2018-07-11T07:48:40.581Z,31.30
2018-07-11T07:51:09.384Z,31.20
2018-07-11T07:53:38.125Z,31.50
2018-07-11T07:56:06.922Z,31.00
2018-07-11T07:58:35.750Z,30.60
2018-07-11T08:01:04.481Z,31.00
2018-07-11T08:03:35.892Z,30.90
2018-07-11T08:06:04.584Z,30.80
2018-07-11T08:08:33.359Z,30.60
2018-07-11T08:11:02.073Z,30.80
2018-07-11T08:13:30.715Z,31.40
2018-07-11T08:15:59.374Z,30.90
2018-07-11T08:18:28.054Z,30.30
2018-07-11T08:20:56.712Z,30.10
2018-07-11T08:23:40.099Z,30.30
2018-07-11T08:26:19.576Z,30.10
2018-07-11T08:33:05.623Z,30.00
2018-07-11T08:35:45.112Z,30.30
2018-07-11T08:41:04.401Z,30.20
2018-07-11T08:45:49.776Z,31.10
2018-07-11T08:48:32.859Z,31.30
2018-07-11T08:51:26.928Z,31.40
2018-07-11T08:54:05.325Z,32.00
2018-07-11T08:56:44.868Z,32.10
2018-07-11T08:59:28.293Z,31.90
2018-07-11T09:02:44.164Z,32.40
2018-07-11T09:05:31.321Z,32.40
2018-07-11T09:08:17.120Z,31.20
2018-07-11T09:13:01.389Z,31.40
2018-07-11T09:15:40.997Z,31.80
2018-07-11T09:18:30.073Z,32.00
2018-07-11T09:22:10.820Z,33.70
2018-07-11T09:24:46.550Z,32.60
2018-07-11T09:27:15.388Z,33.20
2018-07-11T09:29:44.740Z,32.20
2018-07-11T09:32:13.966Z,31.30
2018-07-11T09:34:43.348Z,30.80
2018-07-11T09:37:12.048Z,31.50
2018-07-11T09:39:41.218Z,30.60
2018-07-11T09:42:09.899Z,30.90
2018-07-11T09:44:38.908Z,30.50
2018-07-11T09:47:12.860Z,30.00
2018-07-11T09:49:41.629Z,29.90
2018-07-11T09:52:10.481Z,29.90
2018-07-11T09:54:39.408Z,29.80
2018-07-11T09:57:08.110Z,29.30
2018-07-11T09:59:36.976Z,29.00
2018-07-11T10:02:05.760Z,28.60
2018-07-11T10:04:34.860Z,27.70
2018-07-11T10:07:05.359Z,28.20
2018-07-11T10:09:34.225Z,26.60
2018-07-11T10:12:02.918Z,27.30
2018-07-11T10:14:31.693Z,27.10
2018-07-11T10:17:00.547Z,26.60
2018-07-11T10:19:29.234Z,26.90
2018-07-11T10:21:57.936Z,27.40
2018-07-11T10:24:27.217Z,26.90
2018-07-11T10:26:56.009Z,26.80
2018-07-11T10:29:24.658Z,26.50
2018-07-11T10:31:53.513Z,27.30
2018-07-11T10:34:22.227Z,26.90
2018-07-11T10:36:51.016Z,27.10
2018-07-11T10:39:19.738Z,26.90
2018-07-11T10:41:48.433Z,26.40
2018-07-11T10:44:17.750Z,25.90
2018-07-11T10:46:47.395Z,26.30
2018-07-11T10:49:16.130Z,25.80
2018-07-11T10:51:44.861Z,25.50
2018-07-11T10:54:13.491Z,26.30
2018-07-11T10:56:42.264Z,26.20
2018-07-11T10:59:12.108Z,25.60
2018-07-11T11:01:40.880Z,25.00
2018-07-11T11:04:09.540Z,24.90
2018-07-11T11:06:38.186Z,25.40
2018-07-11T11:09:07.212Z,25.60
2018-07-11T11:11:36.050Z,25.00
2018-07-11T11:16:33.021Z,24.10
2018-07-11T11:19:01.835Z,23.60
2018-07-11T11:21:30.572Z,23.90
2018-07-11T11:23:59.342Z,24.30
2018-07-11T11:26:27.977Z,25.50
2018-07-11T11:28:56.716Z,24.50
2018-07-11T11:31:25.428Z,25.00
2018-07-11T11:33:54.191Z,24.10
2018-07-11T11:36:22.947Z,24.00
2018-07-11T11:38:51.765Z,23.80
2018-07-11T11:41:20.576Z,22.80
2018-07-11T11:43:49.337Z,22.90
2018-07-11T11:46:17.987Z,22.40
2018-07-11T11:48:46.638Z,23.40
2018-07-11T11:53:43.721Z,23.10
2018-07-11T11:56:12.493Z,22.70
2018-07-11T11:58:41.164Z,23.60
2018-07-11T12:01:09.970Z,22.90
2018-07-11T12:03:38.666Z,22.10
2018-07-11T12:06:07.433Z,22.20
2018-07-11T12:08:36.111Z,22.10
2018-07-11T12:11:04.821Z,22.60
2018-07-11T12:13:33.505Z,22.50
2018-07-11T12:19:01.557Z,22.90
2018-07-11T12:21:58.470Z,22.10
2018-07-11T12:24:28.199Z,22.20
2018-07-11T12:26:57.039Z,22.00
2018-07-11T12:29:25.968Z,22.00
2018-07-11T12:31:54.737Z,21.90
2018-07-11T12:34:23.408Z,21.60
2018-07-11T12:36:53.424Z,22.30
2018-07-11T12:39:22.257Z,21.80
2018-07-11T12:41:51.133Z,21.30
2018-07-11T12:44:19.896Z,20.90
2018-07-11T12:46:48.866Z,21.80
2018-07-11T12:49:17.563Z,20.90
2018-07-11T12:51:46.328Z,20.50
2018-07-11T12:54:15.060Z,20.80
2018-07-11T12:56:43.747Z,21.50
2018-07-11T12:59:12.634Z,22.10
2018-07-11T13:01:41.481Z,22.00
2018-07-11T13:04:10.369Z,22.50
2018-07-11T13:06:39.277Z,22.50
2018-07-11T13:09:08.323Z,22.70
2018-07-11T13:11:37.030Z,22.20
2018-07-11T13:14:05.720Z,22.80
2018-07-11T13:16:34.444Z,22.50
2018-07-11T13:19:03.158Z,22.10
2018-07-11T13:21:31.812Z,22.00
2018-07-11T13:24:00.466Z,22.70
2018-07-11T13:26:29.154Z,22.30
2018-07-11T13:28:57.851Z,22.90
2018-07-11T13:31:26.598Z,23.30
2018-07-11T13:33:55.852Z,23.20
2018-07-11T13:36:25.075Z,22.70
2018-07-11T13:38:53.742Z,23.00
2018-07-11T13:41:22.449Z,22.90
2018-07-11T13:43:51.136Z,23.60
2018-07-11T13:46:19.915Z,22.80
2018-07-11T13:48:48.564Z,23.70
2018-07-11T13:51:17.294Z,23.80
2018-07-11T13:53:46.410Z,22.80
2018-07-11T13:56:15.249Z,23.40
2018-07-11T13:58:45.037Z,23.20
2018-07-11T14:01:21.012Z,22.60
2018-07-11T14:03:49.704Z,23.10
2018-07-11T14:08:46.876Z,23.90
2018-07-11T14:11:15.629Z,24.20
2018-07-11T14:13:44.539Z,23.30
2018-07-11T14:16:13.352Z,22.90
2018-07-11T14:18:43.006Z,23.00
2018-07-11T14:21:12.623Z,22.70
2018-07-11T14:23:42.321Z,23.20
2018-07-11T14:26:13.259Z,22.90
2018-07-11T14:28:46.053Z,24.00
2018-07-11T14:31:16.598Z,23.60
2018-07-11T14:33:49.697Z,24.90
2018-07-11T14:36:18.452Z,25.50
2018-07-11T14:38:47.248Z,25.80
2018-07-11T14:41:16.209Z,26.00
2018-07-11T14:43:45.092Z,25.70
2018-07-11T14:46:14.757Z,25.80
2018-07-11T14:48:43.518Z,25.70
2018-07-11T14:51:12.364Z,25.20
2018-07-11T14:53:41.056Z,25.30
2018-07-11T14:56:09.881Z,25.10
2018-07-11T14:58:38.648Z,25.20
2018-07-11T15:01:07.301Z,24.80
2018-07-11T15:03:39.695Z,25.40
2018-07-11T15:06:08.377Z,25.30
2018-07-11T15:08:37.243Z,25.00
2018-07-11T15:11:05.987Z,25.10
2018-07-11T15:13:35.032Z,25.20
2018-07-11T15:16:03.868Z,25.40
2018-07-11T15:18:32.668Z,25.90
2018-07-11T15:21:01.421Z,25.80
2018-07-11T15:23:30.561Z,25.50
2018-07-11T15:25:59.268Z,25.70
2018-07-11T15:28:28.716Z,26.00
2018-07-11T15:30:57.716Z,26.10
2018-07-11T15:33:27.354Z,25.90
2018-07-11T15:35:56.331Z,25.80
2018-07-11T15:38:26.137Z,25.70
2018-07-11T15:40:56.088Z,26.10
2018-07-11T15:43:26.574Z,25.80
2018-07-11T15:45:55.760Z,25.80
2018-07-11T15:48:24.579Z,26.00
2018-07-11T15:50:54.527Z,25.20
2018-07-11T15:53:23.831Z,25.40
2018-07-11T15:55:53.690Z,25.40
2018-07-11T15:58:24.704Z,25.30
2018-07-11T16:00:53.681Z,25.30
2018-07-11T16:03:22.584Z,25.30
2018-07-11T16:05:51.489Z,25.30
2018-07-11T16:08:21.021Z,25.30
2018-07-11T16:10:54.328Z,26.00
2018-07-11T16:13:23.076Z,25.90
2018-07-11T16:15:51.792Z,25.90
2018-07-11T16:18:20.518Z,25.80
2018-07-11T16:20:49.356Z,25.80
2018-07-11T16:23:18.235Z,26.20
2018-07-11T16:25:47.134Z,26.10
2018-07-11T16:28:16.851Z,26.10
2018-07-11T16:30:45.583Z,26.40
2018-07-11T16:33:14.796Z,26.70
2018-07-11T16:35:43.448Z,26.50
2018-07-11T16:38:12.142Z,27.50
2018-07-11T16:40:40.848Z,27.60
2018-07-11T16:45:37.931Z,26.60
2018-07-11T16:48:06.704Z,26.80
2018-07-11T16:50:36.601Z,27.00
2018-07-11T16:53:05.589Z,27.10
2018-07-11T16:55:35.286Z,27.70
2018-07-11T16:58:04.168Z,27.50
2018-07-11T17:00:34.056Z,27.90
2018-07-11T17:03:08.489Z,28.00
2018-07-11T17:05:52.121Z,28.00
2018-07-11T17:08:31.724Z,28.20
2018-07-11T17:11:18.769Z,28.60
2018-07-11T17:16:20.157Z,28.70
2018-07-11T17:18:50.752Z,28.80
2018-07-11T17:21:26.388Z,28.80
2018-07-11T17:24:00.985Z,28.60
2018-07-11T17:26:29.858Z,28.90
2018-07-11T17:29:00.344Z,28.80
2018-07-11T17:31:30.046Z,29.00
2018-07-11T17:33:59.572Z,29.10
2018-07-11T17:36:32.657Z,29.40
2018-07-11T17:39:02.034Z,29.50
2018-07-11T17:41:30.838Z,30.00
2018-07-11T17:44:02.621Z,30.10
2018-07-11T17:46:32.067Z,30.20
2018-07-11T17:52:06.700Z,30.40
2018-07-11T17:54:42.331Z,30.40
2018-07-11T17:57:16.357Z,31.30
2018-07-11T17:59:48.537Z,31.30
2018-07-11T18:02:39.324Z,31.10
2018-07-11T18:05:16.520Z,31.20
2018-07-11T18:07:48.012Z,31.10
2018-07-11T18:10:49.276Z,31.60
2018-07-11T18:13:27.691Z,31.70
2018-07-11T18:19:09.825Z,32.00
2018-07-11T18:21:47.904Z,32.30
2018-07-11T18:24:33.991Z,33.00
2018-07-11T18:27:14.619Z,33.10
2018-07-11T18:32:44.117Z,33.70
2018-07-11T18:35:22.672Z,33.80
2018-07-11T18:38:07.288Z,33.90
2018-07-11T18:41:15.765Z,34.20
2018-07-11T18:44:05.081Z,34.00
2018-07-11T18:46:51.973Z,34.10
2018-07-11T18:49:33.530Z,34.10
2018-07-11T18:52:36.814Z,34.20
2018-07-11T18:55:24.170Z,34.30
2018-07-11T18:58:06.032Z,34.40
2018-07-11T19:00:49.488Z,34.50
2018-07-11T19:03:26.552Z,34.80
2018-07-11T19:06:02.607Z,34.80
2018-07-11T19:08:42.064Z,35.10
2018-07-11T19:11:32.601Z,36.00
2018-07-11T19:14:07.957Z,36.40
2018-07-11T19:18:45.788Z,36.90
2018-07-11T19:21:19.484Z,36.60
2018-07-11T19:24:06.447Z,36.60
2018-07-11T19:28:53.776Z,36.70
2018-07-11T19:31:33.569Z,36.80
2018-07-11T19:34:13.647Z,37.90
2018-07-11T19:36:53.007Z,37.80
2018-07-11T19:39:34.162Z,37.70
2018-07-11T19:42:49.372Z,37.70
2018-07-11T19:45:28.883Z,37.80
2018-07-11T19:48:10.696Z,38.30
2018-07-11T19:50:53.078Z,40.00
2018-07-11T19:53:40.799Z,41.30
2018-07-11T19:56:21.268Z,41.90
2018-07-11T19:58:51.572Z,42.70
2018-07-11T20:01:20.324Z,43.10
2018-07-11T20:03:49.584Z,43.70
2018-07-11T20:06:18.240Z,44.40
2018-07-11T20:08:47.106Z,44.80
2018-07-11T20:11:15.840Z,45.30
2018-07-11T20:13:44.700Z,45.70
2018-07-11T20:16:13.718Z,46.50
2018-07-11T20:18:42.448Z,46.80
2018-07-11T20:21:11.240Z,46.80
2018-07-11T20:23:39.912Z,47.00
2018-07-11T20:26:08.672Z,47.50
2018-07-11T20:28:37.404Z,47.90
2018-07-11T20:31:06.127Z,48.20
2018-07-11T20:33:34.768Z,48.50
2018-07-11T20:36:03.432Z,48.40
2018-07-11T20:38:32.231Z,48.60
2018-07-11T20:41:00.935Z,48.80
2018-07-11T20:43:29.752Z,48.20
2018-07-11T20:45:58.687Z,47.00
2018-07-11T20:48:27.432Z,46.60
2018-07-11T20:50:56.068Z,46.80
2018-07-11T20:53:24.761Z,47.90
2018-07-11T20:55:53.700Z,49.90
2018-07-11T20:58:33.041Z,50.30
2018-07-11T21:01:12.420Z,50.60
2018-07-11T21:05:58.127Z,51.10
2018-07-11T21:08:37.888Z,51.10
2018-07-11T21:13:21.780Z,52.20
2018-07-11T21:16:01.268Z,52.30
2018-07-11T21:18:58.722Z,52.20
2018-07-11T21:21:27.374Z,52.50
2018-07-11T21:23:56.012Z,52.90
2018-07-11T21:26:24.677Z,52.90
2018-07-11T21:28:53.325Z,53.10
2018-07-11T21:31:21.954Z,53.20
2018-07-11T21:33:50.667Z,53.10
2018-07-11T21:36:19.301Z,53.30
2018-07-11T21:38:48.048Z,53.70
2018-07-11T21:41:16.865Z,53.90
2018-07-11T21:43:46.960Z,54.00
2018-07-11T21:46:15.656Z,53.90
2018-07-11T21:48:44.713Z,53.90
2018-07-11T21:51:13.420Z,54.30
2018-07-11T21:53:42.097Z,54.50
2018-07-11T21:56:10.804Z,54.60
2018-07-11T21:58:39.603Z,54.40
2018-07-11T22:03:42.031Z,54.00
2018-07-11T22:06:10.724Z,53.00
2018-07-11T22:08:39.381Z,52.80
2018-07-11T22:13:36.352Z,52.20
2018-07-11T22:16:05.021Z,52.20
2018-07-11T22:18:37.012Z,52.70
2018-07-11T22:21:05.920Z,53.20
2018-07-11T22:23:33.119Z,53.60
2018-07-11T22:26:00.516Z,54.80
2018-07-11T22:28:27.693Z,55.50
2018-07-11T22:30:54.898Z,55.90
2018-07-11T22:33:22.055Z,56.20
2018-07-11T22:35:49.257Z,56.30
2018-07-11T22:38:16.424Z,57.40
2018-07-11T22:40:44.129Z,56.60
2018-07-11T22:43:11.264Z,56.50
2018-07-11T22:45:38.428Z,56.70
2018-07-11T22:48:05.588Z,56.80
2018-07-11T22:50:32.749Z,57.00
2018-07-11T22:52:59.916Z,57.10
2018-07-11T22:55:27.064Z,57.70
2018-07-11T22:57:54.236Z,57.60
2018-07-11T23:02:48.953Z,56.60
2018-07-11T23:05:16.120Z,55.80
2018-07-11T23:07:43.317Z,55.70
2018-07-11T23:10:10.474Z,55.30
2018-07-11T23:12:37.624Z,55.30
2018-07-11T23:15:04.827Z,55.60
2018-07-11T23:17:31.995Z,54.70
2018-07-11T23:19:59.177Z,54.50
2018-07-11T23:22:26.366Z,54.20
2018-07-11T23:24:53.508Z,53.70
2018-07-11T23:29:48.212Z,52.70
2018-07-11T23:32:15.364Z,52.40
2018-07-11T23:34:42.500Z,52.30
2018-07-11T23:37:09.641Z,52.00
2018-07-11T23:39:36.792Z,51.70
2018-07-11T23:42:03.941Z,51.60
2018-07-11T23:44:31.096Z,51.70
2018-07-11T23:46:58.449Z,51.30
2018-07-11T23:49:25.590Z,50.90
2018-07-11T23:51:52.736Z,51.90
2018-07-11T23:54:19.885Z,50.50
2018-07-11T23:56:47.023Z,49.90
2018-07-11T23:59:14.172Z,49.70
